Dog Valley, California Weather observations

Data are for 10 minute period ending at time listed.
 Day   Time    Ave.   Ave.  Ave.  Vector   Max.   Total    Solar   
  of    of     Air    Rel.  Wind   Wind    Wind  Precip.   Rad.    
Year   Day     Temp.  Hum.  Speed  Dir.    Gust                    
2015   (PST)    F      %     mph   deg.    mph     in.     W/m2    
------------------------------------------------------------------- 
 148    0:00   46.0    66    1.0   282      5.0    3.48       0  
 148    1:00   42.0    67    0.0   297      8.0    3.48       0  
 148    2:00   39.0    74    0.0   323      3.0    3.48       0  
 148    3:00   37.0    79    0.0   263      2.0    3.48       0  
 148    4:00   36.0    85    0.0   221      2.0    3.48       0  
 148    5:00   38.0    88    0.0   292      3.0    3.48       1  
 148    6:00   38.0    86    0.0   119      2.0    3.48      22  
 148    7:00   52.0    64    0.0   118      2.0    3.48     175  
 148    8:00   61.0    38    0.0   178      4.0    3.48     255  
 148    9:00   67.0    33    1.0   134      5.0    3.48     539  
 148   10:00   71.0    31    2.0   144      5.0    3.48     819  
 148   11:00   73.0    26    2.0   101      7.0    3.48     944  
 148   12:00   74.0    25    2.0    69      6.0    3.48     999  
 148   13:00   75.0    23    2.0   127      7.0    3.48     938  
 148   14:00   77.0    21    3.0    39      9.0    3.48     862  
 148   15:00   79.0    20    2.0    63      9.0    3.48     930  
 148   16:00   73.0    23    1.0     6      6.0    3.48     394  
 148   17:00   74.0    22    2.0    33      6.0    3.48     397  
 148   18:00   71.0    32    2.0   303      6.0    3.48     195  
 148   19:00   64.0    46    0.0   283      9.0    3.48      41  
 148   20:00   57.0    58    1.0   290      3.0    3.48       4  
 148   21:00   54.0    67    1.0   301      5.0    3.48       0  
 148   22:00   53.0    68    1.0   283      4.0    3.48       0  
 148   23:00   50.0    75    0.0   297      5.0    3.48       0  

Return to Dog Valley, California graphs page.


Western Regional Climate Center,wrcc@dri.edu